Aviation Digital Data Service (ADDS)

Output produced by METARs form (0241 UTC 22 July 2017)
found at http://www.aviationweather.gov/adds/metars/
 
LJLJ 220230Z 28002KT 9999 FEW066 SCT140 18/16 Q1014 NOSIG
TAF LJLJ 212300Z 2200/2224 VRB02KT 9999 SCT050 BKN120 
     PROB40 
     TEMPO 2200/2206 SHRA SCT045TCU BKN060 
     BECMG 2207/2210 FEW060 
     BECMG 2211/2213 24008KT 
     BECMG 2217/2220 28003KT
       
LJMB 220230Z AUTO VRB02KT 9999 NSC 20/17 Q1013
TAF LJMB 212300Z 2200/2224 VRB02KT CAVOK 
     TEMPO 2203/2207 FEW050 SCT120 
     BECMG 2208/2211 18008KT FEW050 
     BECMG 2217/2220 VRB02KT CAVOK
       
LJPZ 220230Z AUTO 08001KT 9999 NSC 21/17 Q1011
TAF LJPZ 212300Z 2200/2209 13007KT 9999 FEW050 BKN140 
     TEMPO 2200/2206 16010G25KT SHRA SCT055TCU BKN090 
     BECMG 2201/2203 16012KT 
     BECMG 2206/2208 13005KT